CZBF

Bathurst Airport

Bathurst, New Brunswick, Canada
METAR CZBF 190800Z AUTO 06007G17KT 010V090 9SM BKN028 OVC033 10/04 A3002 RMK SLP170
Observed Flight Rules
Sep-19 @ 08:00 UTC (an hour ago) Marginal Visual Flight Rules
Wind Visibility Clouds
60° at 7 knots
 Gusting to 17 knots
9 miles
  • Broken at 2,800' AGL
  • Overcast at 3,300' AGL
Temperatures Readings
Current 10°C / 50°F
Dewpoint 4°C / 39°F
Humidity 67%
Altimeter 30.02" Hg
Pressure 1017 hPa
Elevation 59
METAR CZBF 190800Z AUTO 06007G17KT 010V090 9SM BKN028 OVC033 10/04 A3002 RMK SLP170
Observed Flight Rules
Sep-19 @ 08:00 UTC
(an hour ago)
MVFR
Wind Visibility
60° at 7 knots
 Gusting to 17 knots
9 miles
Clouds
  • Broken at 2,800' AGL
  • Overcast at 3,300' AGL
Temperature Dewpoint
10°C / 50°F 4°C / 39°F
Humidity Altimeter Pressure
67% 30.02" Hg 1017 hPa